createdAt,value
2022-09-05T00:04:25.080Z,2.60
2022-09-05T00:09:44.080Z,3.28
2022-09-05T00:15:17.576Z,2.72
2022-09-05T00:24:21.706Z,2.60
2022-09-05T00:26:12.903Z,2.75
2022-09-05T00:31:56.723Z,2.88
2022-09-05T00:36:58.900Z,2.70
2022-09-05T00:42:06.211Z,2.67
2022-09-05T00:47:18.526Z,2.67
2022-09-05T00:52:22.493Z,3.05
2022-09-05T00:57:42.152Z,2.97
2022-09-05T01:02:55.686Z,3.00
2022-09-05T01:08:15.835Z,2.72
2022-09-05T01:13:27.947Z,2.90
2022-09-05T01:18:57.560Z,3.05
2022-09-05T01:24:16.824Z,2.97
2022-09-05T01:29:56.901Z,2.78
2022-09-05T01:35:20.688Z,3.00
2022-09-05T01:40:56.669Z,3.05
2022-09-05T01:46:51.910Z,2.88
2022-09-05T01:52:32.117Z,2.90
2022-09-05T01:57:40.391Z,2.97
2022-09-05T02:03:00.469Z,2.75
2022-09-05T02:08:28.472Z,3.20
2022-09-05T02:13:33.538Z,3.00
2022-09-05T02:18:37.682Z,2.70
2022-09-05T02:24:01.316Z,2.70
2022-09-05T02:29:13.105Z,2.85
2022-09-05T02:34:56.037Z,3.08
2022-09-05T02:45:07.132Z,2.90
2022-09-05T02:45:28.287Z,2.95
2022-09-05T02:53:52.082Z,2.70
2022-09-05T02:57:39.662Z,3.08
2022-09-05T03:02:34.611Z,2.97
2022-09-05T03:08:21.469Z,3.30
2022-09-05T03:13:46.295Z,3.25
2022-09-05T03:19:46.286Z,2.95
2022-09-05T03:25:35.858Z,3.00
2022-09-05T03:30:45.887Z,3.17
2022-09-05T03:36:12.826Z,3.10
2022-09-05T03:41:40.249Z,2.80
2022-09-05T03:46:45.759Z,3.08
2022-09-05T03:57:05.817Z,2.83
2022-09-05T03:58:11.045Z,3.20
2022-09-05T04:08:08.423Z,3.28
2022-09-05T04:09:11.674Z,3.08
2022-09-05T04:14:37.527Z,2.90
2022-09-05T04:20:09.563Z,3.00
2022-09-05T04:25:13.303Z,2.80
2022-09-05T04:30:43.296Z,2.70
2022-09-05T04:36:17.683Z,2.75
2022-09-05T04:41:39.228Z,2.58
2022-09-05T04:46:49.159Z,3.08
2022-09-05T04:52:09.147Z,3.25
2022-09-05T04:57:43.527Z,2.92
2022-09-05T05:06:16.460Z,3.00
2022-09-05T05:08:38.388Z,3.25
2022-09-05T05:18:15.638Z,2.95
2022-09-05T05:19:37.771Z,3.00
2022-09-05T05:24:48.997Z,2.90
2022-09-05T05:30:00.137Z,2.60
2022-09-05T05:35:10.048Z,3.17
2022-09-05T05:40:37.615Z,2.92
2022-09-05T05:46:04.879Z,2.72
2022-09-05T05:52:02.510Z,3.15
2022-09-05T05:57:15.289Z,3.00
2022-09-05T06:02:29.670Z,2.88
2022-09-05T06:09:38.050Z,3.42
2022-09-05T06:14:57.752Z,3.55
2022-09-05T06:20:01.786Z,3.00
2022-09-05T06:25:16.969Z,3.17
2022-09-05T06:30:23.520Z,3.30
2022-09-05T06:35:37.571Z,3.03
2022-09-05T06:40:46.258Z,2.88
2022-09-05T06:46:02.748Z,3.13
2022-09-05T06:51:46.400Z,3.80
2022-09-05T06:57:17.414Z,3.78
2022-09-05T07:02:59.277Z,3.17
2022-09-05T07:08:34.647Z,3.03
2022-09-05T07:14:05.809Z,3.13
2022-09-05T07:19:14.337Z,3.40
2022-09-05T07:24:53.625Z,3.30
2022-09-05T07:29:53.332Z,3.40
2022-09-05T07:35:07.282Z,3.05
2022-09-05T07:40:26.340Z,3.38
2022-09-05T07:45:32.645Z,3.67
2022-09-05T07:53:53.486Z,3.92
2022-09-05T07:57:01.853Z,3.33
2022-09-05T08:01:45.709Z,4.10
2022-09-05T08:07:48.715Z,3.92
2022-09-05T08:12:28.127Z,3.60
2022-09-05T08:17:30.865Z,3.45
2022-09-05T08:22:48.097Z,3.20
2022-09-05T08:28:07.670Z,3.33
2022-09-05T08:33:18.106Z,4.03
2022-09-05T08:38:20.234Z,4.18
2022-09-05T08:46:41.710Z,3.78
2022-09-05T08:49:40.360Z,3.95
2022-09-05T08:55:04.273Z,4.10
2022-09-05T09:00:20.265Z,3.70
2022-09-05T09:06:15.823Z,3.75
2022-09-05T09:11:27.383Z,3.55
2022-09-05T09:17:07.942Z,3.22
2022-09-05T09:22:09.618Z,3.53
2022-09-05T09:28:45.263Z,3.95
2022-09-05T09:33:09.114Z,3.58
2022-09-05T09:38:23.138Z,3.60
2022-09-05T09:43:44.219Z,3.85
2022-09-05T09:49:24.092Z,3.83
2022-09-05T09:54:47.142Z,3.72
2022-09-05T10:00:23.630Z,3.05
2022-09-05T10:10:39.095Z,3.45
2022-09-05T10:17:05.687Z,3.50
2022-09-05T10:22:36.605Z,4.07
2022-09-05T10:28:02.924Z,3.60
2022-09-05T10:35:08.004Z,3.22
2022-09-05T10:38:43.948Z,3.55
2022-09-05T10:44:04.504Z,3.35
2022-09-05T10:49:14.823Z,3.45
2022-09-05T10:54:36.609Z,3.40
2022-09-05T11:02:23.121Z,3.33
2022-09-05T11:05:48.179Z,2.97
2022-09-05T11:11:09.573Z,3.08
2022-09-05T11:16:53.995Z,3.35
2022-09-05T11:22:23.633Z,3.60
2022-09-05T11:27:47.667Z,3.30
2022-09-05T11:39:47.068Z,2.90
2022-09-05T11:39:56.956Z,3.05
2022-09-05T11:45:21.643Z,3.17
2022-09-05T11:50:29.620Z,3.20
2022-09-05T11:55:35.052Z,2.90
2022-09-05T12:01:41.567Z,2.78
2022-09-05T12:06:49.308Z,2.65
2022-09-05T12:12:39.190Z,2.45
2022-09-05T12:18:19.075Z,2.60
2022-09-05T12:24:05.387Z,2.50
2022-09-05T12:29:33.045Z,2.55
2022-09-05T12:36:09.947Z,2.80
2022-09-05T12:41:37.925Z,2.65
2022-09-05T12:46:07.743Z,2.80
2022-09-05T12:51:46.658Z,2.78
2022-09-05T12:58:33.042Z,3.08
2022-09-05T13:03:14.501Z,2.30
2022-09-05T13:08:02.867Z,2.78
2022-09-05T13:14:54.319Z,2.47
2022-09-05T13:18:40.852Z,2.25
2022-09-05T13:24:07.402Z,2.47
2022-09-05T13:29:16.624Z,2.83
2022-09-05T13:38:07.907Z,2.00
2022-09-05T13:40:09.426Z,1.77
2022-09-05T13:45:18.535Z,2.45
2022-09-05T13:50:39.360Z,2.28
2022-09-05T13:55:57.526Z,2.30
2022-09-05T14:01:13.024Z,2.40
2022-09-05T14:06:48.864Z,2.30
2022-09-05T14:12:02.709Z,2.28
2022-09-05T14:22:40.964Z,2.53
2022-09-05T14:27:47.990Z,2.47
2022-09-05T14:37:49.104Z,2.50
2022-09-05T14:39:15.643Z,2.45
2022-09-05T14:44:48.798Z,2.78
2022-09-05T14:50:27.753Z,2.35
2022-09-05T14:55:31.004Z,2.67
2022-09-05T15:02:51.544Z,2.78
2022-09-05T15:06:33.082Z,2.60
2022-09-05T15:12:27.777Z,2.80
2022-09-05T15:17:05.037Z,2.60
2022-09-05T15:22:27.504Z,2.67
2022-09-05T15:27:32.742Z,2.92
2022-09-05T15:32:38.111Z,2.78
2022-09-05T15:37:43.611Z,2.45
2022-09-05T15:42:50.732Z,2.53
2022-09-05T15:48:20.648Z,2.90
2022-09-05T15:53:34.194Z,2.60
2022-09-05T15:58:52.346Z,2.85
2022-09-05T16:07:47.826Z,2.60
2022-09-05T16:10:41.556Z,2.40
2022-09-05T16:16:18.645Z,2.40
2022-09-05T16:23:28.689Z,2.30
2022-09-05T16:25:50.902Z,2.38
2022-09-05T16:31:00.861Z,2.22
2022-09-05T16:36:10.933Z,2.25
2022-09-05T16:41:54.994Z,2.28
2022-09-05T16:47:23.985Z,2.60
2022-09-05T16:52:53.704Z,2.47
2022-09-05T16:58:21.685Z,2.30
2022-09-05T17:03:34.081Z,2.40
2022-09-05T17:08:36.543Z,2.08
2022-09-05T17:13:44.974Z,2.22
2022-09-05T17:18:52.646Z,2.30
2022-09-05T17:29:20.446Z,2.42
2022-09-05T17:31:10.905Z,2.67
2022-09-05T17:35:16.597Z,3.15
2022-09-05T17:40:36.620Z,2.30
2022-09-05T17:45:45.022Z,3.25
2022-09-05T17:50:53.991Z,2.70
2022-09-05T17:55:56.247Z,2.70
2022-09-05T18:01:05.598Z,2.60
2022-09-05T18:06:16.625Z,2.63
2022-09-05T18:11:27.622Z,2.40
2022-09-05T18:16:46.944Z,2.80
2022-09-05T18:22:29.543Z,2.80
2022-09-05T18:28:03.516Z,2.42
2022-09-05T18:33:33.298Z,2.58
2022-09-05T18:38:51.240Z,2.30
2022-09-05T18:44:13.927Z,2.50
2022-09-05T18:50:25.415Z,3.28
2022-09-05T18:56:10.158Z,2.33
2022-09-05T19:00:51.885Z,2.13
2022-09-05T19:06:36.021Z,2.22
2022-09-05T19:11:31.805Z,2.17
2022-09-05T19:16:47.388Z,2.58
2022-09-05T19:23:02.662Z,2.40
2022-09-05T19:33:15.677Z,2.70
2022-09-05T19:36:59.601Z,3.00
2022-09-05T19:38:13.372Z,2.63
2022-09-05T19:47:39.307Z,2.50
2022-09-05T19:48:47.587Z,2.70
2022-09-05T19:54:05.433Z,2.38
2022-09-05T19:59:22.474Z,2.30
2022-09-05T20:04:26.880Z,2.50
2022-09-05T20:09:28.741Z,2.30
2022-09-05T20:14:36.841Z,3.33
2022-09-05T20:19:38.636Z,2.28
2022-09-05T20:24:42.944Z,2.30
2022-09-05T20:29:54.849Z,2.65
2022-09-05T20:36:56.312Z,2.88
2022-09-05T20:43:29.088Z,2.58
2022-09-05T20:46:34.363Z,2.47
2022-09-05T20:54:16.615Z,2.70
2022-09-05T20:56:53.299Z,2.35
2022-09-05T21:02:21.979Z,2.53
2022-09-05T21:07:35.649Z,2.53
2022-09-05T21:12:48.438Z,2.53
2022-09-05T21:17:54.375Z,2.60
2022-09-05T21:22:59.316Z,2.45
2022-09-05T21:28:06.228Z,2.40
2022-09-05T21:33:29.978Z,2.38
2022-09-05T21:38:49.051Z,2.70
2022-09-05T21:47:44.481Z,2.40
2022-09-05T21:49:12.569Z,2.30
2022-09-05T21:59:20.741Z,2.47
2022-09-05T21:59:55.475Z,2.58
2022-09-05T22:05:03.139Z,2.28
2022-09-05T22:10:06.672Z,2.40
2022-09-05T22:15:28.070Z,2.10
2022-09-05T22:20:33.490Z,2.78
2022-09-05T22:25:38.123Z,2.47
2022-09-05T22:30:44.605Z,2.25
2022-09-05T22:35:46.312Z,2.30
2022-09-05T22:40:53.852Z,2.70
2022-09-05T22:45:57.805Z,2.47
2022-09-05T22:51:02.683Z,2.42
2022-09-05T22:56:08.340Z,2.10
2022-09-05T23:01:13.895Z,2.25
2022-09-05T23:06:15.596Z,2.55
2022-09-05T23:11:18.260Z,2.30
2022-09-05T23:16:20.130Z,2.40
2022-09-05T23:21:24.564Z,2.63
2022-09-05T23:26:28.617Z,2.55
2022-09-05T23:31:35.215Z,2.63
2022-09-05T23:36:37.050Z,2.78
2022-09-05T23:41:42.282Z,2.47
2022-09-05T23:46:46.270Z,2.45
2022-09-05T23:51:50.252Z,2.60
2022-09-05T23:56:56.633Z,2.25
